Observation data for Goodlett on 12/09/2018      Previous  Date  Next       Current Mesonet Observations  Soil Data  Daily Summary Page  Observations in Plain Language
KGDS 090600Z 31007KT M01/M06 A3032 RMK A01 T10141064  RH  069%=      5-min Rain = 0
KGDS 090605Z 31007KT M02/M06 A3032 RMK A01 T10171064  RH  070%=      5-min Rain = 0
KGDS 090610Z 31008KT M02/M06 A3032 RMK A01 T10191063  RH  072%=      5-min Rain = 0
KGDS 090615Z 31008KT M02/M06 A3032 RMK A01 T10201064  RH  072%=      5-min Rain = 0
KGDS 090620Z 31008KT M02/M06 A3032 RMK A01 T10211063  RH  073%=      5-min Rain = 0
KGDS 090625Z 31008KT M02/M06 A3032 RMK A01 T10241063  RH  074%=      5-min Rain = 0
KGDS 090630Z 31008KT M02/M06 A3032 RMK A01 T10241064  RH  074%=      5-min Rain = 0
KGDS 090635Z 31009KT M02/M07 A3032 RMK A01 T10241065  RH  073%=      5-min Rain = 0
KGDS 090640Z 31009KT M02/M07 A3032 RMK A01 T10231066  RH  072%=      5-min Rain = 0
KGDS 090645Z 31009KT M02/M07 A3032 RMK A01 T10231067  RH  072%=      5-min Rain = 0
KGDS 090650Z 31010KT M02/M07 A3032 RMK A01 T10221068  RH  071%=      5-min Rain = 0
KGDS 090655Z 30010KT M02/M07 A3032 RMK A01 T10241067  RH  072%=      5-min Rain = 0
KGDS 090700Z 31010KT M03/M07 A3032 RMK A01 T10251068  RH  072%=      5-min Rain = 0
KGDS 090705Z 30009KT M03/M07 A3032 RMK A01 T10251069  RH  072%=      5-min Rain = 0
KGDS 090710Z 30010KT M03/M07 A3032 RMK A01 T10271069  RH  073%=      5-min Rain = 0
KGDS 090715Z 31009KT M03/M07 A3032 RMK A01 T10271071  RH  071%=      5-min Rain = 0
KGDS 090720Z 31009KT M03/M07 A3032 RMK A01 T10261073  RH  070%=      5-min Rain = 0
KGDS 090725Z 31009KT M03/M08 A3032 RMK A01 T10251075  RH  068%=      5-min Rain = 0
KGDS 090730Z 31010KT M03/M08 A3032 RMK A01 T10251075  RH  068%=      5-min Rain = 0
KGDS 090735Z 31009KT M03/M08 A3032 RMK A01 T10251076  RH  068%=      5-min Rain = 0
KGDS 090740Z 31009KT M03/M08 A3033 RMK A01 T10251076  RH  068%=      5-min Rain = 0
KGDS 090745Z 31009KT M03/M07 A3033 RMK A01 T10261074  RH  069%=      5-min Rain = 0
KGDS 090750Z 30009KT M03/M07 A3033 RMK A01 T10291073  RH  072%=      5-min Rain = 0
KGDS 090755Z 31009KT M03/M07 A3032 RMK A01 T10311072  RH  074%=      5-min Rain = 0
KGDS 090800Z 31009KT M03/M07 A3032 RMK A01 T10321073  RH  073%=      5-min Rain = 0
KGDS 090805Z 31009KT M03/M08 A3032 RMK A01 T10311075  RH  072%=      5-min Rain = 0
KGDS 090810Z 31009KT M03/M08 A3032 RMK A01 T10311075  RH  071%=      5-min Rain = 0
KGDS 090815Z 31008KT M03/M07 A3032 RMK A01 T10321074  RH  073%=      5-min Rain = 0
KGDS 090820Z 31009KT M03/M08 A3032 RMK A01 T10331075  RH  073%=      5-min Rain = 0
KGDS 090825Z 31008KT M03/M08 A3032 RMK A01 T10331076  RH  072%=      5-min Rain = 0
KGDS 090830Z 30009KT M03/M08 A3032 RMK A01 T10341076  RH  073%=      5-min Rain = 0
KGDS 090835Z 30009KT M04/M08 A3032 RMK A01 T10351075  RH  074%=      5-min Rain = 0
KGDS 090840Z 31009KT M04/M08 A3032 RMK A01 T10361075  RH  074%=      5-min Rain = 0
KGDS 090845Z 30009KT M04/M08 A3033 RMK A01 T10351076  RH  074%=      5-min Rain = 0
KGDS 090850Z 30009KT M04/M08 A3033 RMK A01 T10361075  RH  074%=      5-min Rain = 0
KGDS 090855Z 31009KT M04/M08 A3033 RMK A01 T10361075  RH  074%=      5-min Rain = 0
KGDS 090900Z 31008KT M04/M08 A3033 RMK A01 T10361075  RH  074%=      5-min Rain = 0
KGDS 090905Z 31008KT M04/M08 A3032 RMK A01 T10371075  RH  075%=      5-min Rain = 0
KGDS 090910Z 31008KT M04/M08 A3032 RMK A01 T10361078  RH  073%=      5-min Rain = 0
KGDS 090915Z 31009KT M04/M08 A3032 RMK A01 T10361078  RH  073%=      5-min Rain = 0
KGDS 090920Z 31008KT M04/M08 A3032 RMK A01 T10361077  RH  073%=      5-min Rain = 0
KGDS 090925Z 31008KT M04/M08 A3032 RMK A01 T10381077  RH  074%=      5-min Rain = 0
KGDS 090930Z 31008KT M04/M08 A3032 RMK A01 T10391077  RH  075%=      5-min Rain = 0
KGDS 090935Z 30009KT M04/M08 A3033 RMK A01 T10381078  RH  074%=      5-min Rain = 0
KGDS 090940Z 30009KT M04/M08 A3032 RMK A01 T10381078  RH  074%=      5-min Rain = 0
KGDS 090945Z 31010KT M04/M08 A3032 RMK A01 T10391078  RH  074%=      5-min Rain = 0
KGDS 090950Z 30010KT M04/M08 A3032 RMK A01 T10381079  RH  073%=      5-min Rain = 0
KGDS 090955Z 31010KT M04/M08 A3032 RMK A01 T10371080  RH  072%=      5-min Rain = 0
KGDS 091000Z 31010KT M04/M08 A3032 RMK A01 T10371080  RH  072%=      5-min Rain = 0
KGDS 091005Z 31009KT M04/M08 A3032 RMK A01 T10371081  RH  072%=      5-min Rain = 0
KGDS 091010Z 32009KT M04/M08 A3032 RMK A01 T10381082  RH  072%=      5-min Rain = 0
KGDS 091015Z 31008KT M04/M08 A3032 RMK A01 T10401081  RH  073%=      5-min Rain = 0
KGDS 091020Z 32008KT M04/M08 A3032 RMK A01 T10401081  RH  073%=      5-min Rain = 0
KGDS 091025Z 31009KT M04/M08 A3032 RMK A01 T10401080  RH  073%=      5-min Rain = 0
KGDS 091030Z 31009KT M04/M08 A3032 RMK A01 T10401081  RH  073%=      5-min Rain = 0
KGDS 091035Z 31008KT M04/M08 A3032 RMK A01 T10401081  RH  073%=      5-min Rain = 0
KGDS 091040Z 31008KT M04/M08 A3032 RMK A01 T10421080  RH  074%=      5-min Rain = 0
KGDS 091045Z 30007KT M04/M08 A3033 RMK A01 T10421081  RH  074%=      5-min Rain = 0
KGDS 091050Z 30007KT M04/M08 A3033 RMK A01 T10431081  RH  074%=      5-min Rain = 0
KGDS 091055Z 30007KT M04/M08 A3033 RMK A01 T10441081  RH  075%=      5-min Rain = 0
KGDS 091100Z 30007KT M05/M08 A3033 RMK A01 T10451081  RH  076%=      5-min Rain = 0
KGDS 091105Z 31007KT M05/M08 A3033 RMK A01 T10451081  RH  076%=      5-min Rain = 0
KGDS 091110Z 31007KT M05/M08 A3033 RMK A01 T10451081  RH  076%=      5-min Rain = 0
KGDS 091115Z 31007KT M05/M08 A3033 RMK A01 T10451082  RH  076%=      5-min Rain = 0
KGDS 091120Z 32006KT M05/M08 A3033 RMK A01 T10461082  RH  076%=      5-min Rain = 0
KGDS 091125Z 32007KT M05/M08 A3033 RMK A01 T10471082  RH  077%=      5-min Rain = 0
KGDS 091130Z 31007KT M05/M08 A3033 RMK A01 T10471081  RH  077%=      5-min Rain = 0
KGDS 091135Z 32007KT M05/M08 A3033 RMK A01 T10461081  RH  076%=      5-min Rain = 0
KGDS 091140Z 32007KT M05/M08 A3033 RMK A01 T10461081  RH  076%=      5-min Rain = 0
KGDS 091145Z 32008KT M05/M08 A3033 RMK A01 T10451080  RH  076%=      5-min Rain = 0
KGDS 091150Z 31008KT M05/M08 A3033 RMK A01 T10451081  RH  076%=      5-min Rain = 0
KGDS 091155Z 31008KT M05/M08 A3034 RMK A01 T10451081  RH  076%=      5-min Rain = 0
KGDS 091200Z 31008KT M05/M08 A3034 RMK A01 T10461080  RH  077%=      5-min Rain = 0
KGDS 091205Z 32009KT M05/M08 A3034 RMK A01 T10461081  RH  077%=      5-min Rain = 0
KGDS 091210Z 31009KT M05/M08 A3034 RMK A01 T10461080  RH  077%=      5-min Rain = 0
KGDS 091215Z 31009KT M05/M08 A3034 RMK A01 T10461081  RH  076%=      5-min Rain = 0
KGDS 091220Z 31009KT M04/M08 A3035 RMK A01 T10441081  RH  075%=      5-min Rain = 0
KGDS 091225Z 31009KT M04/M08 A3035 RMK A01 T10431082  RH  074%=      5-min Rain = 0
KGDS 091230Z 31008KT M04/M08 A3035 RMK A01 T10441082  RH  075%=      5-min Rain = 0
KGDS 091235Z 31007KT M05/M08 A3035 RMK A01 T10451082  RH  076%=      5-min Rain = 0
KGDS 091240Z 31007KT M05/M08 A3035 RMK A01 T10451082  RH  076%=      5-min Rain = 0
KGDS 091245Z 30007KT M05/M08 A3035 RMK A01 T10451083  RH  075%=      5-min Rain = 0
KGDS 091250Z 30007KT M05/M08 A3035 RMK A01 T10461082  RH  076%=      5-min Rain = 0
KGDS 091255Z 30008KT M05/M08 A3036 RMK A01 T10461082  RH  076%=      5-min Rain = 0
KGDS 091300Z 31008KT M05/M08 A3036 RMK A01 T10461083  RH  075%=      5-min Rain = 0
KGDS 091305Z 31007KT M05/M08 A3036 RMK A01 T10461083  RH  075%=      5-min Rain = 0
KGDS 091310Z 31006KT M05/M08 A3036 RMK A01 T10461083  RH  076%=      5-min Rain = 0
KGDS 091315Z 31006KT M05/M08 A3036 RMK A01 T10451083  RH  075%=      5-min Rain = 0
KGDS 091320Z 30007KT M05/M08 A3036 RMK A01 T10471082  RH  076%=      5-min Rain = 0
KGDS 091325Z 30008KT M05/M08 A3037 RMK A01 T10461083  RH  075%=      5-min Rain = 0
KGDS 091330Z 30008KT M05/M08 A3037 RMK A01 T10461083  RH  076%=      5-min Rain = 0
KGDS 091335Z 30008KT M05/M08 A3037 RMK A01 T10471083  RH  076%=      5-min Rain = 0
KGDS 091340Z 31008KT M05/M08 A3037 RMK A01 T10461083  RH  075%=      5-min Rain = 0
KGDS 091345Z 31009KT M05/M08 A3037 RMK A01 T10451084  RH  074%=      5-min Rain = 0
KGDS 091350Z 30009KT M04/M08 A3037 RMK A01 T10441084  RH  074%=      5-min Rain = 0
KGDS 091355Z 30008KT M04/M08 A3037 RMK A01 T10431083  RH  073%=      5-min Rain = 0
KGDS 091400Z 31009KT M04/M08 A3037 RMK A01 T10391084  RH  071%=      5-min Rain = 0
KGDS 091405Z 30008KT M04/M08 A3037 RMK A01 T10391082  RH  072%=      5-min Rain = 0
KGDS 091410Z 31008KT M04/M08 A3037 RMK A01 T10391081  RH  072%=      5-min Rain = 0
KGDS 091415Z 31008KT M04/M08 A3038 RMK A01 T10371082  RH  071%=      5-min Rain = 0
KGDS 091420Z 31008KT M04/M08 A3038 RMK A01 T10351080  RH  071%=      5-min Rain = 0
KGDS 091425Z 31008KT M03/M08 A3038 RMK A01 T10331079  RH  070%=      5-min Rain = 0
KGDS 091430Z 31008KT M03/M08 A3038 RMK A01 T10291078  RH  069%=      5-min Rain = 0
KGDS 091435Z 31008KT M03/M08 A3038 RMK A01 T10261078  RH  067%=      5-min Rain = 0
KGDS 091440Z 31008KT M02/M08 A3038 RMK A01 T10241078  RH  066%=      5-min Rain = 0
KGDS 091445Z 30008KT M02/M08 A3039 RMK A01 T10221077  RH  066%=      5-min Rain = 0
KGDS 091450Z 30008KT M02/M08 A3039 RMK A01 T10201077  RH  065%=      5-min Rain = 0
KGDS 091455Z 30007KT M02/M07 A3039 RMK A01 T10171074  RH  065%=      5-min Rain = 0
KGDS 091500Z 30008KT M01/M07 A304 RMK A01 T10141074  RH  064%=      5-min Rain = 0
KGDS 091505Z 30008KT M01/M07 A304 RMK A01 T10121073  RH  063%=      5-min Rain = 0
KGDS 091510Z 30008KT M01/M07 A304 RMK A01 T10101074  RH  062%=      5-min Rain = 0
KGDS 091515Z 30009KT M01/M07 A304 RMK A01 T10091073  RH  062%=      5-min Rain = 0
KGDS 091520Z 30009KT M01/M07 A304 RMK A01 T10081072  RH  062%=      5-min Rain = 0
KGDS 091525Z 30008KT M01/M07 A304 RMK A01 T10051068  RH  062%=      5-min Rain = 0
KGDS 091530Z 31007KT M00/M07 A3041 RMK A01 T10031068  RH  062%=      5-min Rain = 0
KGDS 091535Z 31007KT 00/06 A3041 RMK A01 T00000-64  RH  062%=      5-min Rain = 0
KGDS 091540Z 32007KT 00/M06 A3041 RMK A01 T00041063  RH  061%=      5-min Rain = 0
KGDS 091545Z 32007KT 01/M07 A3042 RMK A01 T00051067  RH  058%=      5-min Rain = 0
KGDS 091550Z 32007KT 00/M07 A3042 RMK A01 T00031069  RH  058%=      5-min Rain = 0
KGDS 091555Z 32007KT 00/M07 A3042 RMK A01 T00031066  RH  060%=      5-min Rain = 0
KGDS 091600Z 31007KT 01/M07 A3042 RMK A01 T00061067  RH  058%=      5-min Rain = 0
KGDS 091605Z 30007KT 01/M07 A3042 RMK A01 T00081067  RH  058%=      5-min Rain = 0
KGDS 091610Z 30006KT 01/M06 A3042 RMK A01 T00121062  RH  058%=      5-min Rain = 0
KGDS 091615Z 29006KT 01/M06 A3042 RMK A01 T00131063  RH  057%=      5-min Rain = 0
KGDS 091620Z 30005KT 02/M06 A3042 RMK A01 T00151063  RH  056%=      5-min Rain = 0
KGDS 091625Z 30005KT 02/M06 A3042 RMK A01 T00181063  RH  055%=      5-min Rain = 0
KGDS 091630Z 31005KT 02/M06 A3042 RMK A01 T00191062  RH  055%=      5-min Rain = 0
KGDS 091635Z 32006KT 02/M06 A3042 RMK A01 T00221063  RH  053%=      5-min Rain = 0
KGDS 091640Z 32006KT 02/M06 A3042 RMK A01 T00231064  RH  053%=      5-min Rain = 0
KGDS 091645Z 32007KT 03/M06 A3041 RMK A01 T00251064  RH  052%=      5-min Rain = 0
KGDS 091650Z 32006KT 03/M07 A3041 RMK A01 T00261065  RH  051%=      5-min Rain = 0
KGDS 091655Z 31006KT 03/M06 A3041 RMK A01 T00271063  RH  051%=      5-min Rain = 0
KGDS 091700Z 31006KT 03/M06 A3041 RMK A01 T00301062  RH  051%=      5-min Rain = 0
KGDS 091705Z 30005KT 03/M07 A3041 RMK A01 T00301065  RH  050%=      5-min Rain = 0
KGDS 091710Z 30006KT 03/M06 A3041 RMK A01 T00331061  RH  050%=      5-min Rain = 0
KGDS 091715Z 33005KT 04/M06 A3041 RMK A01 T00351064  RH  048%=      5-min Rain = 0
KGDS 091720Z 32006KT 04/M06 A3041 RMK A01 T00371064  RH  047%=      5-min Rain = 0
KGDS 091725Z 33006KT 04/M07 A3041 RMK A01 T00401065  RH  046%=      5-min Rain = 0
KGDS 091730Z 35005KT 04/M07 A304 RMK A01 T00421071  RH  044%=      5-min Rain = 0
KGDS 091735Z 34006KT 04/M07 A304 RMK A01 T00441071  RH  043%=      5-min Rain = 0
KGDS 091740Z 35007KT 05/M07 A3039 RMK A01 T00471074  RH  041%=      5-min Rain = 0
KGDS 091745Z 35007KT 05/M07 A3039 RMK A01 T00491071  RH  042%=      5-min Rain = 0
KGDS 091750Z 35006KT 05/M08 A3039 RMK A01 T00481076  RH  040%=      5-min Rain = 0
KGDS 091755Z 34005G11KT 05/M08 A3039 RMK A01 T00511076  RH  039%=      5-min Rain = 0
KGDS 091800Z 35006KT 05/M08 A3039 RMK A01 T00531079  RH  038%=      5-min Rain = 0
KGDS 091805Z 35005KT 06/M07 A3038 RMK A01 T00561071  RH  040%=      5-min Rain = 0
KGDS 091810Z 01005G11KT 06/M08 A3038 RMK A01 T00551075  RH  039%=      5-min Rain = 0
KGDS 091815Z 02004G10KT 05/M08 A3038 RMK A01 T00541081  RH  037%=      5-min Rain = 0
KGDS 091820Z 01005KT 06/M08 A3038 RMK A01 T00561079  RH  037%=      5-min Rain = 0
KGDS 091825Z 00005KT 06/M09 A3038 RMK A01 T00551088  RH  035%=      5-min Rain = 0
KGDS 091830Z 35004KT 06/M08 A3038 RMK A01 T00571084  RH  035%=      5-min Rain = 0
KGDS 091835Z 36005KT 06/M09 A3037 RMK A01 T00611086  RH  034%=      5-min Rain = 0
KGDS 091840Z 01005KT 06/M09 A3037 RMK A01 T00611091  RH  032%=      5-min Rain = 0
KGDS 091845Z 35003KT 06/M10 A3037 RMK A01 T00621097  RH  031%=      5-min Rain = 0
KGDS 091850Z 00003G8KT 07/M09 A3037 RMK A01 T00661090  RH  032%=      5-min Rain = 0
KGDS 091855Z 02005KT 07/M08 A3037 RMK A01 T00651083  RH  034%=      5-min Rain = 0
KGDS 091900Z 33007KT 07/M08 A3036 RMK A01 T00691082  RH  033%=      5-min Rain = 0
KGDS 091905Z 33004KT 07/M09 A3036 RMK A01 T00671091  RH  031%=      5-min Rain = 0
KGDS 091910Z 33004KT 07/M09 A3036 RMK A01 T00701088  RH  031%=      5-min Rain = 0
KGDS 091915Z 32005KT 07/M09 A3036 RMK A01 T00701089  RH  031%=      5-min Rain = 0
KGDS 091920Z 33005KT 07/M09 A3036 RMK A01 T00721086  RH  031%=      5-min Rain = 0
KGDS 091925Z 30003KT 07/M09 A3035 RMK A01 T00721085  RH  032%=      5-min Rain = 0
KGDS 091930Z 29003KT 07/M09 A3034 RMK A01 T00741089  RH  030%=      5-min Rain = 0
KGDS 091935Z 33002KT 08/M10 A3034 RMK A01 T00771095  RH  028%=      5-min Rain = 0
KGDS 091940Z 33006KT 08/M09 A3034 RMK A01 T00781086  RH  030%=      5-min Rain = 0
KGDS 091945Z 31004KT 08/M09 A3034 RMK A01 T00751093  RH  029%=      5-min Rain = 0
KGDS 091950Z 29003KT 08/M09 A3034 RMK A01 T00761094  RH  029%=      5-min Rain = 0
KGDS 091955Z 34003KT 08/M09 A3034 RMK A01 T00781094  RH  028%=      5-min Rain = 0
KGDS 092000Z 31003KT 08/M10 A3033 RMK A01 T00791097  RH  028%=      5-min Rain = 0
KGDS 092005Z 32003KT 08/M10 A3033 RMK A01 T00791097  RH  027%=      5-min Rain = 0
KGDS 092010Z 29004KT 08/M10 A3033 RMK A01 T00811096  RH  027%=      5-min Rain = 0
KGDS 092015Z 30004KT 08/M09 A3033 RMK A01 T00811094  RH  028%=      5-min Rain = 0
KGDS 092020Z 19000KT 08/M10 A3033 RMK A01 T00831103  RH  025%=      5-min Rain = 0
KGDS 092025Z 28002KT 09/M10 A3033 RMK A01 T00861097  RH  026%=      5-min Rain = 0
KGDS 092030Z 32004KT 09/M09 A3033 RMK A01 T00851093  RH  027%=      5-min Rain = 0
KGDS 092035Z 30003KT 08/M10 A3034 RMK A01 T00841099  RH  026%=      5-min Rain = 0
KGDS 092040Z 32004KT 09/M10 A3034 RMK A01 T00851102  RH  025%=      5-min Rain = 0
KGDS 092045Z 32005KT 09/M10 A3034 RMK A01 T00861099  RH  026%=      5-min Rain = 0
KGDS 092050Z 30005KT 09/M10 A3034 RMK A01 T00861098  RH  026%=      5-min Rain = 0
KGDS 092055Z 27005KT 09/M10 A3033 RMK A01 T00861101  RH  026%=      5-min Rain = 0
KGDS 092100Z 33004KT 09/M11 A3033 RMK A01 T00851105  RH  025%=      5-min Rain = 0
KGDS 092105Z 30003KT 09/M10 A3033 RMK A01 T00871100  RH  025%=      5-min Rain = 0
KGDS 092110Z 26004KT 09/M10 A3033 RMK A01 T00881103  RH  025%=      5-min Rain = 0
KGDS 092115Z 25003KT 09/M10 A3033 RMK A01 T00901098  RH  025%=      5-min Rain = 0
KGDS 092120Z 29005KT 09/M10 A3033 RMK A01 T00891099  RH  025%=      5-min Rain = 0
KGDS 092125Z 28004KT 09/M10 A3033 RMK A01 T00891096  RH  026%=      5-min Rain = 0
KGDS 092130Z 29002KT 09/M11 A3033 RMK A01 T00891111  RH  023%=      5-min Rain = 0
KGDS 092135Z 32002KT 09/M11 A3033 RMK A01 T00911106  RH  024%=      5-min Rain = 0
KGDS 092140Z 29003KT 09/M11 A3033 RMK A01 T00901113  RH  022%=      5-min Rain = 0
KGDS 092145Z 32003KT 09/M11 A3033 RMK A01 T00901111  RH  023%=      5-min Rain = 0
KGDS 092150Z 31004KT 09/M11 A3033 RMK A01 T00891111  RH  023%=      5-min Rain = 0
KGDS 092155Z 26003KT 09/M11 A3033 RMK A01 T00911106  RH  024%=      5-min Rain = 0
KGDS 092200Z 25004KT 09/M11 A3033 RMK A01 T00911105  RH  024%=      5-min Rain = 0
KGDS 092205Z 26003KT 09/M11 A3033 RMK A01 T00921106  RH  023%=      5-min Rain = 0
KGDS 092210Z 26004KT 09/M10 A3033 RMK A01 T00921103  RH  024%=      5-min Rain = 0
KGDS 092215Z 25003KT 09/M10 A3033 RMK A01 T00911104  RH  024%=      5-min Rain = 0
KGDS 092220Z 25004KT 09/M10 A3033 RMK A01 T00901101  RH  025%=      5-min Rain = 0
KGDS 092225Z 23005KT 09/M09 A3033 RMK A01 T00901092  RH  027%=      5-min Rain = 0
KGDS 092230Z 24005KT 09/M09 A3033 RMK A01 T00881085  RH  028%=      5-min Rain = 0
KGDS 092235Z 27005KT 09/M09 A3033 RMK A01 T00881094  RH  026%=      5-min Rain = 0
KGDS 092240Z 27005KT 09/M10 A3033 RMK A01 T00871097  RH  026%=      5-min Rain = 0
KGDS 092245Z 27004KT 09/M09 A3033 RMK A01 T00871094  RH  027%=      5-min Rain = 0
KGDS 092250Z 27004KT 09/M10 A3033 RMK A01 T00871096  RH  026%=      5-min Rain = 0
KGDS 092255Z 27005KT 09/M09 A3033 RMK A01 T00851088  RH  028%=      5-min Rain = 0
KGDS 092300Z 26005KT 08/M09 A3033 RMK A01 T00841092  RH  028%=      5-min Rain = 0
KGDS 092305Z 26003KT 08/M09 A3033 RMK A01 T00821086  RH  029%=      5-min Rain = 0
KGDS 092310Z 26003KT 08/M09 A3033 RMK A01 T00811086  RH  030%=      5-min Rain = 0
KGDS 092315Z 26002KT 08/M08 A3033 RMK A01 T00801083  RH  031%=      5-min Rain = 0
KGDS 092320Z 26002KT 08/M08 A3033 RMK A01 T00791080  RH  031%=      5-min Rain = 0
KGDS 092325Z 26002KT 08/M08 A3033 RMK A01 T00771084  RH  031%=      5-min Rain = 0
KGDS 092330Z 26003KT 08/M09 A3033 RMK A01 T00751089  RH  030%=      5-min Rain = 0
KGDS 092335Z 26003KT 07/M08 A3033 RMK A01 T00711084  RH  032%=      5-min Rain = 0
KGDS 092340Z 26003KT 07/M08 A3033 RMK A01 T00671078  RH  035%=      5-min Rain = 0
KGDS 092345Z 26003KT 06/M08 A3033 RMK A01 T00631078  RH  036%=      5-min Rain = 0
KGDS 092350Z 26003KT 06/M08 A3033 RMK A01 T00621084  RH  034%=      5-min Rain = 0
KGDS 092355Z 25003KT 06/M09 A3033 RMK A01 T00621087  RH  033%=      5-min Rain = 0
KGDS 100000Z 25003KT 06/M09 A3033 RMK A01 T00621089  RH  033%=      5-min Rain = 0
KGDS 100005Z 24003KT 06/M09 A3033 RMK A01 T00611090  RH  033%=      5-min Rain = 0
KGDS 100010Z 25003KT 06/M09 A3034 RMK A01 T00611091  RH  033%=      5-min Rain = 0
KGDS 100015Z 25003KT 06/M09 A3034 RMK A01 T00621092  RH  032%=      5-min Rain = 0
KGDS 100020Z 25004KT 06/M09 A3034 RMK A01 T00621092  RH  032%=      5-min Rain = 0
KGDS 100025Z 24004KT 06/M09 A3034 RMK A01 T00601091  RH  033%=      5-min Rain = 0
KGDS 100030Z 23004KT 06/M09 A3034 RMK A01 T00581089  RH  034%=      5-min Rain = 0
KGDS 100035Z 24004KT 06/M09 A3034 RMK A01 T00551085  RH  036%=      5-min Rain = 0
KGDS 100040Z 24004KT 05/M08 A3034 RMK A01 T00511079  RH  038%=      5-min Rain = 0
KGDS 100045Z 23004KT 05/M08 A3034 RMK A01 T00491076  RH  040%=      5-min Rain = 0
KGDS 100050Z 24004KT 05/M08 A3034 RMK A01 T00491075  RH  040%=      5-min Rain = 0
KGDS 100055Z 24004KT 05/M07 A3034 RMK A01 T00491074  RH  041%=      5-min Rain = 0
KGDS 100100Z 23005KT 05/M07 A3034 RMK A01 T00471073  RH  041%=      5-min Rain = 0
KGDS 100105Z 23005KT 05/M07 A3034 RMK A01 T00451069  RH  043%=      5-min Rain = 0
KGDS 100110Z 23006KT 04/M07 A3034 RMK A01 T00411066  RH  045%=      5-min Rain = 0
KGDS 100115Z 23006KT 04/M07 A3034 RMK A01 T00361066  RH  047%=      5-min Rain = 0
KGDS 100120Z 23006KT 03/M06 A3035 RMK A01 T00321064  RH  049%=      5-min Rain = 0
KGDS 100125Z 24006KT 03/M06 A3035 RMK A01 T00301063  RH  050%=      5-min Rain = 0
KGDS 100130Z 24007KT 03/M06 A3035 RMK A01 T00291062  RH  051%=      5-min Rain = 0
KGDS 100135Z 25006KT 03/M07 A3035 RMK A01 T00301065  RH  050%=      5-min Rain = 0
KGDS 100140Z 24007KT 03/M07 A3035 RMK A01 T00291066  RH  050%=      5-min Rain = 0
KGDS 100145Z 24006KT 03/M07 A3035 RMK A01 T00301068  RH  048%=      5-min Rain = 0
KGDS 100150Z 24006KT 03/M07 A3035 RMK A01 T00301065  RH  050%=      5-min Rain = 0
KGDS 100155Z 24007KT 03/M06 A3035 RMK A01 T00271063  RH  052%=      5-min Rain = 0
KGDS 100200Z 24007KT 02/M06 A3035 RMK A01 T00241062  RH  053%=      5-min Rain = 0
KGDS 100205Z 24008KT 02/M06 A3035 RMK A01 T00201060  RH  055%=      5-min Rain = 0
KGDS 100210Z 24007KT 02/M06 A3035 RMK A01 T00151057  RH  059%=      5-min Rain = 0
KGDS 100215Z 24008KT 01/M06 A3035 RMK A01 T00131055  RH  061%=      5-min Rain = 0
KGDS 100220Z 25007KT 01/M05 A3035 RMK A01 T00101051  RH  064%=      5-min Rain = 0
KGDS 100225Z 25007KT 01/M05 A3035 RMK A01 T00091048  RH  066%=      5-min Rain = 0
KGDS 100230Z 24006KT 01/M05 A3035 RMK A01 T00101045  RH  067%=      5-min Rain = 0
KGDS 100235Z 24006KT 01/M04 A3035 RMK A01 T00081044  RH  068%=      5-min Rain = 0
KGDS 100240Z 24006KT 00/M04 A3035 RMK A01 T00041043  RH  071%=      5-min Rain = 0
KGDS 100245Z 24006KT 00/04 A3035 RMK A01 T00-00-43  RH  073%=      5-min Rain = 0
KGDS 100250Z 24006KT 00/M04 A3035 RMK A01 T00021042  RH  073%=      5-min Rain = 0
KGDS 100255Z 24007KT 00/M04 A3035 RMK A01 T00011040  RH  074%=      5-min Rain = 0
KGDS 100300Z 25008KT 01/M04 A3035 RMK A01 T00061038  RH  073%=      5-min Rain = 0
KGDS 100305Z 25008KT 01/M04 A3035 RMK A01 T00111037  RH  071%=      5-min Rain = 0
KGDS 100310Z 25008KT 01/M04 A3035 RMK A01 T00121035  RH  071%=      5-min Rain = 0
KGDS 100315Z 25009KT 01/M04 A3035 RMK A01 T00111035  RH  072%=      5-min Rain = 0
KGDS 100320Z 25009KT 01/M03 A3035 RMK A01 T00101034  RH  073%=      5-min Rain = 0
KGDS 100325Z 25009KT 01/M03 A3036 RMK A01 T00091033  RH  074%=      5-min Rain = 0
KGDS 100330Z 26008KT 01/M03 A3036 RMK A01 T00101032  RH  074%=      5-min Rain = 0
KGDS 100335Z 26008KT 01/M03 A3035 RMK A01 T00101031  RH  074%=      5-min Rain = 0
KGDS 100340Z 26008KT 01/M03 A3035 RMK A01 T00091031  RH  075%=      5-min Rain = 0
KGDS 100345Z 25008KT 01/M03 A3035 RMK A01 T00081030  RH  076%=      5-min Rain = 0
KGDS 100350Z 24007KT 01/M03 A3035 RMK A01 T00051031  RH  078%=      5-min Rain = 0
KGDS 100355Z 24007KT M00/M03 A3035 RMK A01 T10011030  RH  082%=      5-min Rain = 0
KGDS 100400Z 24007KT M00/M03 A3035 RMK A01 T10031029  RH  083%=      5-min Rain = 0
KGDS 100405Z 25007KT M00/M03 A3035 RMK A01 T10031030  RH  083%=      5-min Rain = 0
KGDS 100410Z 25008KT 00/03 A3035 RMK A01 T00-00-29  RH  082%=      5-min Rain = 0
KGDS 100415Z 24007KT M00/M03 A3035 RMK A01 T10021029  RH  083%=      5-min Rain = 0
KGDS 100420Z 24007KT M00/M03 A3035 RMK A01 T10041029  RH  084%=      5-min Rain = 0
KGDS 100425Z 24007KT M01/M03 A3035 RMK A01 T10051028  RH  084%=      5-min Rain = 0
KGDS 100430Z 24006KT M01/M03 A3035 RMK A01 T10061028  RH  085%=      5-min Rain = 0
KGDS 100435Z 23006KT M01/M03 A3035 RMK A01 T10071028  RH  086%=      5-min Rain = 0
KGDS 100440Z 22006KT M01/M03 A3035 RMK A01 T10081028  RH  087%=      5-min Rain = 0
KGDS 100445Z 22006KT M01/M03 A3034 RMK A01 T10091028  RH  087%=      5-min Rain = 0
KGDS 100450Z 22006KT M01/M03 A3034 RMK A01 T10111029  RH  088%=      5-min Rain = 0
KGDS 100455Z 23007KT M01/M03 A3035 RMK A01 T10091028  RH  088%=      5-min Rain = 0
KGDS 100500Z 24007KT M01/M03 A3035 RMK A01 T10081027  RH  088%=      5-min Rain = 0
KGDS 100505Z 24007KT M01/M03 A3035 RMK A01 T10071027  RH  087%=      5-min Rain = 0
KGDS 100510Z 25008KT M01/M03 A3035 RMK A01 T10051026  RH  086%=      5-min Rain = 0
KGDS 100515Z 25007KT M00/M03 A3035 RMK A01 T10041026  RH  085%=      5-min Rain = 0
KGDS 100520Z 25006KT M00/M03 A3035 RMK A01 T10041027  RH  085%=      5-min Rain = 0
KGDS 100525Z 26006KT M01/M03 A3035 RMK A01 T10061028  RH  086%=      5-min Rain = 0
KGDS 100530Z 26007KT M01/M03 A3035 RMK A01 T10071028  RH  087%=      5-min Rain = 0
KGDS 100535Z 27008KT M01/M03 A3035 RMK A01 T10061027  RH  086%=      5-min Rain = 0
KGDS 100540Z 27008KT M01/M03 A3035 RMK A01 T10071027  RH  087%=      5-min Rain = 0
KGDS 100545Z 27008KT M01/M03 A3035 RMK A01 T10071027  RH  087%=      5-min Rain = 0
KGDS 100550Z 26008KT M00/M03 A3035 RMK A01 T10041026  RH  086%=      5-min Rain = 0
KGDS 100555Z 26008KT M01/M03 A3035 RMK A01 T10051027  RH  086%=      5-min Rain = 0

Page generated in 0.0089 seconds.